Aeroporto :
LOGIN :

Iscrizione | Disclaimer

   EN    FR    IT 

 










Sommario :    VFR   VFR Marginale   IFR   IFR Intensivo   IFR Molto Intensivo
Visibilità : 
Base nubi : 
>= 8 km
>= 3000ft
5 / 8 km
1000 / 3000 ft
1500m / 5 km
500 / 1000 ft
800 / 1500m
200 / 500 ft
< 800m
< 200 ft
Simboli :   Temporali  Nebbia  Neve Forte  Precipitazioni Forti  Vento > 20 kt
SIGMETs :   Varie  Temporali  Ghiacco  Turbolenza  Onda orograficha  Ceneri Vulcaniche






- Altitudine del aeroporto : 686 ft


LYKV - Ladevci

ULTIMO METAR :
  • 200430Z 29007KT 260V320 9999 -RA SCT015 BKN025 03/03 Q1020 NOSIG

METARs OBSOLETI :
  • 200400Z 29007KT 9999 -RA SCT015 BKN025 03/03 Q1020 NOSIG
  • 200330Z 30010KT 270V330 9999 -RA SCT015 BKN025 03/03 Q1020 NOSIG
  • 200300Z 30008KT 270V330 9999 -RA SCT015 BKN025 04/04 Q1020 NOSIG
  • 200230Z 30004KT 9999 -RA SCT015 BKN025 04/04 Q1019 NOSIG
  • 200200Z VRB06KT 9999 -RA SCT015 BKN025 04/04 Q1019 NOSIG

TAF TAF LYKV
Valido dal 20 a 00 ore il 21 a 00 ore UTC


192300Z 2000/2024 32012KT 9999 BKN015 BKN030 TX08/2013Z TN01/2005Z
BECMG 2001/2003 RA BKN010 BKN027
PROB40
TEMPO 2004/2008 2000 -SN BKN007 BKN025
BECMG 2010/2012 9999 NSW SCT017 BKN030



MetMap, La meteo Aeronautica in un colpo d'occhio ! - Copyright ORBIFLY Dicembre 2007 - Disclaimer

ORBIFLY MET'MAP TEAM :

Programmazione e sviluppo : Alexandra Zaïnal
Concezione : Baudouin d'Aumeries
Aiuto per la programmazione : Marc-Olivier Méhu
Supporto tecnico e logistico : Manuel Goepfert
Aiuto per la traduzione : Arnaldo La Scala

Contatto : metmap@orbifly.com




FONTI E CREDITI :

   NOAA